Time;durP1;ratioP1;P1;durP2;ratioP2;P2;SDS_P1;SDS_P2;PMS_P1;PMS_P2;Temp;Humidity;BMP_temperature;BMP_pressure;BME280_temperature;BME280_humidity;BME280_pressure;Samples;Min_cycle;Max_cycle;Signal;HPM_P1;HPM_P2
2022/07/22 00:01:52;;;;;;;5.70;4.65;;;;;;;23.62;51.58;100789.95;1691607;83;27758;-64
2022/07/22 00:04:17;;;;;;;7.55;5.53;;;;;;;23.55;51.64;100784.71;1683857;83;98746;-64
2022/07/22 00:06:43;;;;;;;13.75;4.78;;;;;;;23.48;51.80;100790.38;1652246;85;25898;-64
2022/07/22 00:09:09;;;;;;;5.70;5.10;;;;;;;23.46;51.92;100792.39;1683384;83;99070;-64
2022/07/22 00:11:35;;;;;;;7.92;5.42;;;;;;;23.44;52.17;100802.63;1650601;85;25898;-64
2022/07/22 00:14:02;;;;;;;7.28;5.20;;;;;;;23.39;52.58;100794.52;1685453;83;29645;-62
2022/07/22 00:16:29;;;;;;;8.70;5.20;;;;;;;23.34;52.80;100794.95;1684521;83;98762;-63
2022/07/22 00:18:54;;;;;;;9.25;5.10;;;;;;;23.31;52.88;100795.25;1686882;83;25693;-63
2022/07/22 00:21:20;;;;;;;8.80;4.87;;;;;;;23.27;52.92;100796.55;1695206;82;98858;-63
2022/07/22 00:23:46;;;;;;;8.20;5.80;;;;;;;23.24;53.06;100805.90;1696239;83;25664;-63
2022/07/22 00:26:13;;;;;;;8.10;5.50;;;;;;;23.18;53.29;100806.98;1689661;83;29535;-65
2022/07/22 00:28:39;;;;;;;7.90;5.50;;;;;;;23.13;53.66;100810.14;1690731;83;98633;-63
2022/07/22 00:31:05;;;;;;;7.05;5.25;;;;;;;23.05;53.78;100813.23;1689758;83;25679;-63
2022/07/22 00:33:32;;;;;;;15.83;5.08;;;;;;;23.01;53.93;100819.48;1687395;83;98885;-63
2022/07/22 00:35:57;;;;;;;9.83;5.55;;;;;;;23.00;54.11;100831.43;1685627;83;26082;-63
2022/07/22 00:38:23;;;;;;;10.85;5.33;;;;;;;22.98;54.17;100834.30;1688423;83;27414;-63
2022/07/22 00:40:49;;;;;;;8.58;5.20;;;;;;;22.97;54.24;100838.55;1690006;83;98978;-63
2022/07/22 00:43:15;;;;;;;9.00;5.37;;;;;;;22.95;54.49;100835.09;1688351;83;25972;-64
2022/07/22 00:45:44;;;;;;;6.97;5.62;;;;;;;22.89;54.54;100835.66;1688598;83;98829;-64
2022/07/22 00:48:12;;;;;;;12.45;5.53;;;;;;;22.85;54.77;100835.58;1690728;83;25812;-64
2022/07/22 00:50:38;;;;;;;7.12;5.92;;;;;;;22.82;54.88;100827.16;1690325;82;27405;-63
2022/07/22 00:53:04;;;;;;;6.08;5.47;;;;;;;22.83;54.97;100838.45;1687097;83;98721;-63
2022/07/22 00:55:33;;;;;;;9.60;5.62;;;;;;;22.82;55.21;100843.55;1693881;83;25815;-63
2022/07/22 00:57:58;;;;;;;6.95;5.92;;;;;;;22.73;55.47;100831.20;1661293;84;98821;-63
2022/07/22 01:00:24;;;;;;;6.47;5.80;;;;;;;22.72;55.75;100830.84;1651829;85;25765;-63
2022/07/22 01:02:50;;;;;;;9.48;6.20;;;;;;;22.68;55.92;100822.05;1656976;85;27459;-63
2022/07/22 01:05:17;;;;;;;9.78;6.62;;;;;;;22.64;56.03;100824.70;1653468;85;98528;-63
2022/07/22 01:07:43;;;;;;;8.05;6.30;;;;;;;22.63;56.24;100818.88;1656828;84;25846;-63
2022/07/22 01:10:10;;;;;;;10.30;6.25;;;;;;;22.51;56.40;100807.70;1652030;84;99237;-64
2022/07/22 01:12:37;;;;;;;8.40;6.05;;;;;;;22.51;56.40;100807.70;1655429;84;25794;-63
2022/07/22 01:15:04;;;;;;;8.95;6.53;;;;;;;22.41;56.94;100813.13;1652183;85;98881;-64
2022/07/22 01:17:30;;;;;;;9.23;6.12;;;;;;;22.26;57.67;100816.73;1622706;86;25894;-63
2022/07/22 01:20:09;;;;;;;8.88;7.08;;;;;;;22.26;57.67;100816.73;1622220;86;25820;-63
2022/07/22 01:22:35;;;;;;;10.90;6.35;;;;;;;22.22;58.03;100802.13;1623328;86;98774;-63
2022/07/22 01:25:01;;;;;;;8.35;6.58;;;;;;;22.22;58.03;100802.13;1621067;86;25935;-63
2022/07/22 01:27:27;;;;;;;8.38;6.30;;;;;;;22.24;58.15;100804.22;1681447;82;99161;-63
2022/07/22 01:29:53;;;;;;;8.20;6.55;;;;;;;22.26;58.20;100802.22;1683984;83;25579;-63
2022/07/22 01:32:19;;;;;;;19.67;7.60;;;;;;;22.11;58.46;100781.25;1681836;83;25782;-63
2022/07/22 01:34:45;;;;;;;9.18;6.58;;;;;;;22.23;58.45;100799.77;1677863;83;98892;-63
2022/07/22 01:37:13;;;;;;;8.98;6.58;;;;;;;22.24;58.48;100806.95;1683405;83;25745;-64
2022/07/22 01:39:38;;;;;;;10.10;6.65;;;;;;;22.26;58.68;100808.55;1678168;82;98922;-63
2022/07/22 01:42:06;;;;;;;12.68;6.90;;;;;;;22.23;58.76;100795.16;1681555;83;25964;-63
2022/07/22 01:44:33;;;;;;;9.93;6.35;;;;;;;22.21;59.01;100801.77;1677474;83;25836;-63
2022/07/22 01:46:59;;;;;;;10.78;7.22;;;;;;;22.15;58.97;100806.41;1681036;83;99095;-63
2022/07/22 01:49:25;;;;;;;10.65;7.10;;;;;;;22.15;59.06;100797.72;1678435;82;25777;-64
2022/07/22 01:51:52;;;;;;;8.83;6.67;;;;;;;22.16;59.14;100793.13;1677614;83;98973;-63
2022/07/22 01:54:21;;;;;;;10.35;7.17;;;;;;;22.17;59.15;100788.89;1681998;83;27153;-63
2022/07/22 01:56:47;;;;;;;10.13;6.97;;;;;;;22.15;59.19;100792.26;1682736;83;25792;-64
2022/07/22 01:59:13;;;;;;;10.55;7.00;;;;;;;22.13;59.28;100796.13;1687902;82;98701;-64
2022/07/22 02:01:39;;;;;;;10.25;6.97;;;;;;;22.16;59.27;100789.03;1682539;83;25748;-64
2022/07/22 02:04:07;;;;;;;8.45;6.33;;;;;;;22.15;59.33;100782.70;1678325;82;98971;-64
2022/07/22 02:06:32;;;;;;;9.98;6.45;;;;;;;22.15;59.43;100785.94;1681485;83;25772;-64
2022/07/22 02:08:59;;;;;;;9.68;6.78;;;;;;;22.15;59.50;100786.80;1682277;83;98811;-64
2022/07/22 02:11:24;;;;;;;7.05;6.35;;;;;;;22.13;59.52;100796.99;1678524;82;26624;-64
2022/07/22 02:13:50;;;;;;;9.40;6.35;;;;;;;22.09;59.58;100790.08;1686894;83;25722;-64
2022/07/22 02:16:16;;;;;;;11.75;6.95;;;;;;;22.05;59.71;100783.16;1682907;82;99053;-64
2022/07/22 02:18:42;;;;;;;12.37;6.80;;;;;;;22.02;59.80;100781.57;1681936;83;25763;-65
2022/07/22 02:21:08;;;;;;;9.43;6.78;;;;;;;22.02;59.94;100791.12;1634859;85;99066;-64
2022/07/22 02:23:34;;;;;;;12.53;7.50;;;;;;;22.06;60.04;100801.77;1681998;82;27861;-64
2022/07/22 02:26:00;;;;;;;10.18;7.20;;;;;;;22.09;60.11;100817.88;1683921;83;25843;-65
2022/07/22 02:28:26;;;;;;;10.18;7.53;;;;;;;22.13;59.95;100841.17;1676759;83;98974;-63
2022/07/22 02:30:52;;;;;;;14.50;7.08;;;;;;;22.13;59.95;100841.17;1646182;85;27100;-63
2022/07/22 02:33:18;;;;;;;15.60;7.17;;;;;;;22.15;60.22;100821.42;1639391;85;99054;-64
2022/07/22 02:35:44;;;;;;;11.38;7.00;;;;;;;22.17;60.16;100811.23;1644019;85;25828;-63
2022/07/22 02:38:11;;;;;;;14.75;7.95;;;;;;;22.06;60.15;100819.02;1685152;82;26408;-63
2022/07/22 02:40:38;;;;;;;16.40;7.10;;;;;;;22.06;60.15;100819.02;1681337;83;99027;-63
2022/07/22 02:43:06;;;;;;;12.40;6.65;;;;;;;22.22;60.28;100859.47;1637855;85;25935;-63
2022/07/22 02:45:33;;;;;;;13.15;7.53;;;;;;;22.18;60.48;100877.13;1677233;83;99132;-64
2022/07/22 02:47:58;;;;;;;9.13;7.45;;;;;;;22.05;61.08;100880.06;1676688;83;26375;-64
2022/07/22 02:50:25;;;;;;;14.45;7.40;;;;;;;22.05;61.08;100880.06;1690434;83;25833;-64
2022/07/22 02:52:52;;;;;;;11.63;7.03;;;;;;;21.96;61.19;100871.28;1678083;83;98983;-64
2022/07/22 02:55:19;;;;;;;8.68;7.60;;;;;;;21.72;62.05;100844.27;1685656;83;25911;-64
2022/07/22 02:57:45;;;;;;;11.83;8.18;;;;;;;21.72;62.05;100844.27;1682596;83;98853;-64
2022/07/22 03:00:13;;;;;;;14.45;8.70;;;;;;;21.63;62.32;100822.74;1681334;83;26653;-64
2022/07/22 03:02:39;;;;;;;14.30;8.43;;;;;;;21.55;62.49;100832.09;1688478;83;25796;-64
2022/07/22 03:05:07;;;;;;;11.30;8.80;;;;;;;21.50;62.64;100830.25;1681329;83;98872;-64
2022/07/22 03:07:33;;;;;;;13.65;9.03;;;;;;;21.47;62.65;100826.43;1679861;83;25802;-64
2022/07/22 03:09:59;;;;;;;18.07;9.50;;;;;;;21.41;62.81;100814.69;1683291;82;98920;-64
2022/07/22 03:12:25;;;;;;;11.22;8.55;;;;;;;21.36;62.86;100800.08;1680906;83;25761;-64
2022/07/22 03:14:51;;;;;;;14.03;9.40;;;;;;;21.33;63.06;100807.16;1681334;83;25736;-64
2022/07/22 03:17:17;;;;;;;12.37;8.50;;;;;;;21.33;63.21;100813.98;1686425;83;98689;-64
2022/07/22 03:19:43;;;;;;;13.98;8.33;;;;;;;21.29;63.39;100797.52;1685174;83;25849;-63
2022/07/22 03:22:09;;;;;;;15.20;8.78;;;;;;;21.30;63.55;100797.02;1683534;83;99142;-63
2022/07/22 03:24:35;;;;;;;11.48;8.65;;;;;;;21.29;63.78;100792.56;1682912;83;26142;-63
2022/07/22 03:27:01;;;;;;;12.70;8.30;;;;;;;21.29;63.98;100808.42;1682222;82;99420;-64
2022/07/22 03:29:27;;;;;;;15.38;9.15;;;;;;;21.32;64.04;100834.56;1645609;85;27456;-64
2022/07/22 03:31:53;;;;;;;12.93;8.73;;;;;;;21.34;64.19;100836.66;1681595;83;26544;-64
2022/07/22 03:34:19;;;;;;;11.00;7.85;;;;;;;21.38;64.32;100838.13;1679822;83;98872;-63
2022/07/22 03:36:44;;;;;;;11.35;8.88;;;;;;;21.41;64.47;100834.27;1682998;83;26543;-63
2022/07/22 03:39:10;;;;;;;12.05;8.35;;;;;;;21.41;64.60;100836.50;1676650;83;99012;-63
2022/07/22 03:41:36;;;;;;;8.90;7.42;;;;;;;21.42;64.69;100840.09;1683173;83;27472;-63
2022/07/22 03:44:02;;;;;;;8.55;6.87;;;;;;;21.38;64.80;100840.85;1681940;83;25890;-63
2022/07/22 03:46:31;;;;;;;10.38;7.78;;;;;;;21.43;64.91;100843.19;1675398;83;98615;-64
2022/07/22 03:48:56;;;;;;;11.65;8.25;;;;;;;21.47;64.90;100835.98;1681708;83;25856;-64
2022/07/22 03:51:22;;;;;;;13.28;8.83;;;;;;;21.51;64.95;100820.21;1682751;83;99065;-63
2022/07/22 03:53:48;;;;;;;10.45;7.87;;;;;;;21.52;64.96;100813.27;1679889;83;27401;-63
2022/07/22 03:56:14;;;;;;;14.87;9.03;;;;;;;;;;1684972;83;25790;-63
2022/07/22 03:58:40;;;;;;;13.10;9.30;;;;;;;21.52;65.20;100805.08;1684021;83;70953;-64
2022/07/22 04:01:06;;;;;;;11.12;8.45;;;;;;;21.57;65.32;100812.86;1680835;83;25710;-64
2022/07/22 04:03:31;;;;;;;12.07;8.45;;;;;;;21.61;65.34;100820.65;1681030;83;99077;-64
2022/07/22 04:05:57;;;;;;;9.75;8.75;;;;;;;21.63;65.36;100824.11;1682048;83;27494;-63
2022/07/22 04:08:23;;;;;;;13.18;8.45;;;;;;;21.65;65.40;100830.30;1683631;83;25740;-63
2022/07/22 04:10:49;;;;;;;9.70;7.85;;;;;;;21.67;65.44;100834.25;1678854;83;98858;-63
2022/07/22 04:13:15;;;;;;;11.18;8.65;;;;;;;21.69;65.50;100833.13;1683690;83;25911;-63
2022/07/22 04:15:41;;;;;;;11.55;8.20;;;;;;;21.69;65.51;100833.63;1686963;82;98964;-63
2022/07/22 04:18:08;;;;;;;11.48;8.13;;;;;;;21.68;65.55;100836.85;1677837;83;29561;-63
2022/07/22 04:20:37;;;;;;;10.48;8.30;;;;;;;21.68;65.67;100839.58;1687502;83;26488;-63
2022/07/22 04:23:02;;;;;;;10.98;8.65;;;;;;;21.73;65.71;100843.27;1650585;84;99264;-63
2022/07/22 04:25:28;;;;;;;12.07;9.13;;;;;;;21.78;65.79;100847.83;1631630;86;26412;-62
2022/07/22 04:27:54;;;;;;;11.53;9.30;;;;;;;21.83;65.87;100854.25;1621189;85;98946;-63
2022/07/22 04:30:20;;;;;;;12.70;9.73;;;;;;;21.87;65.89;100851.13;1686851;83;27427;-63
2022/07/22 04:32:46;;;;;;;18.48;10.68;;;;;;;21.87;65.84;100845.66;1684580;83;26304;-63
2022/07/22 04:35:12;;;;;;;15.13;11.10;;;;;;;21.85;65.86;100851.75;1682034;83;98615;-63
2022/07/22 04:37:37;;;;;;;20.05;11.25;;;;;;;21.82;66.03;100852.52;1685565;83;27878;-64
2022/07/22 04:40:07;;;;;;;15.45;10.00;;;;;;;21.73;66.12;100854.19;1686568;83;98980;-64
2022/07/22 04:42:34;;;;;;;17.07;12.47;;;;;;;21.65;66.41;100853.98;1679897;83;27397;-63
2022/07/22 04:44:59;;;;;;;19.35;11.65;;;;;;;21.47;66.91;100860.52;1680386;83;99246;-63
2022/07/22 04:47:25;;;;;;;19.57;12.05;;;;;;;21.35;67.35;100861.56;1681384;83;25715;-63
2022/07/22 04:49:52;;;;;;;20.70;11.63;;;;;;;21.28;67.72;100866.67;1684578;83;25755;-63
2022/07/22 04:52:18;;;;;;;21.82;12.33;;;;;;;21.26;68.00;100865.07;1683330;83;99117;-63
2022/07/22 04:54:47;;;;;;;20.15;12.25;;;;;;;21.27;68.46;100862.71;1650007;84;26710;-63
2022/07/22 04:57:13;;;;;;;17.67;12.07;;;;;;;21.27;68.46;100862.71;1620454;86;99793;-68
2022/07/22 04:59:38;;;;;;;15.15;11.18;;;;;;;21.30;68.22;100870.63;1637325;85;25896;-68
2022/07/22 05:02:04;;;;;;;20.68;11.68;;;;;;;21.33;68.30;100875.83;1638885;85;25839;-66
2022/07/22 05:04:31;;;;;;;15.50;11.63;;;;;;;21.33;68.33;100884.01;1637611;85;99171;-69
2022/07/22 05:06:57;;;;;;;17.70;12.18;;;;;;;21.35;68.34;100886.97;1643233;85;27398;-66
2022/07/22 05:09:23;;;;;;;16.45;12.40;;;;;;;21.33;68.34;100881.28;1633562;84;99186;-67
2022/07/22 05:11:50;;;;;;;20.62;11.57;;;;;;;21.33;68.39;100879.91;1638351;85;37252;-67
2022/07/22 05:14:16;;;;;;;17.45;11.50;;;;;;;21.35;68.69;100877.42;1644824;85;26419;-67
2022/07/22 05:16:42;;;;;;;17.73;11.48;;;;;;;21.41;68.59;100873.81;1639135;85;99084;-66
2022/07/22 05:19:08;;;;;;;15.58;11.88;;;;;;;21.42;68.59;100872.32;1641226;86;29525;-66
2022/07/22 05:21:34;;;;;;;15.55;11.55;;;;;;;21.47;68.61;100878.75;1645094;85;99284;-67
2022/07/22 05:24:00;;;;;;;19.87;11.93;;;;;;;21.52;68.65;100881.45;1644740;85;25838;-66
2022/07/22 05:26:29;;;;;;;18.40;11.65;;;;;;;21.55;68.66;100878.95;1635825;85;26243;-67
2022/07/22 05:28:56;;;;;;;19.60;12.07;;;;;;;21.62;68.75;100878.80;1635980;85;98980;-66
2022/07/22 05:31:22;;;;;;;20.85;12.58;;;;;;;21.72;68.71;100881.10;1641852;84;28174;-66
2022/07/22 05:33:48;;;;;;;17.40;12.53;;;;;;;21.77;68.52;100884.80;1633006;85;99668;-67
2022/07/22 05:36:14;;;;;;;17.57;12.30;;;;;;;21.78;68.60;100887.89;1650053;83;26147;-66
2022/07/22 05:38:40;;;;;;;18.40;11.85;;;;;;;21.84;68.61;100884.63;1626985;86;25824;-66
2022/07/22 05:41:06;;;;;;;16.42;11.93;;;;;;;21.92;68.61;100884.33;1652370;84;98833;-66
2022/07/22 05:43:31;;;;;;;17.82;12.50;;;;;;;21.99;68.50;100879.20;1650405;85;28008;-67
2022/07/22 05:46:01;;;;;;;23.12;12.93;;;;;;;22.07;68.53;100873.97;1642987;85;98950;-67
2022/07/22 05:48:27;;;;;;;18.92;13.00;;;;;;;22.19;68.45;100874.76;1642841;85;25373;-67
2022/07/22 05:50:52;;;;;;;19.20;12.15;;;;;;;22.25;68.34;100868.25;1637274;85;25799;-67
2022/07/22 05:53:18;;;;;;;15.48;12.40;;;;;;;22.26;68.18;100869.98;1641538;85;98958;-67
2022/07/22 05:55:44;;;;;;;18.98;12.13;;;;;;;22.25;68.13;100871.48;1640417;85;27383;-67
2022/07/22 05:58:10;;;;;;;20.72;12.73;;;;;;;22.25;68.11;100862.80;1684814;83;99072;-67
2022/07/22 06:00:36;;;;;;;19.50;12.00;;;;;;;22.22;68.20;100863.06;1682895;83;25954;-67
2022/07/22 06:03:02;;;;;;;20.20;13.05;;;;;;;22.22;68.10;100859.47;1655307;84;99297;-67
2022/07/22 06:05:28;;;;;;;15.88;11.18;;;;;;;22.24;68.02;100856.97;1634590;86;25749;-67
2022/07/22 06:07:54;;;;;;;19.32;13.08;;;;;;;22.28;67.94;100844.77;1634007;86;27342;-66
2022/07/22 06:10:20;;;;;;;18.42;11.73;;;;;;;22.32;67.92;100836.67;1652548;84;98969;-68
2022/07/22 06:12:48;;;;;;;18.45;12.55;;;;;;;22.38;67.89;100843.95;1655039;84;25785;-66
2022/07/22 06:15:14;;;;;;;17.05;11.75;;;;;;;22.42;67.88;100844.91;1639045;85;98352;-65
2022/07/22 06:17:40;;;;;;;16.32;11.25;;;;;;;22.43;67.71;100841.67;1637340;85;25746;-66
2022/07/22 06:20:08;;;;;;;13.30;11.25;;;;;;;22.45;67.64;100840.53;1637402;86;28085;-65
2022/07/22 06:22:34;;;;;;;19.48;12.53;;;;;;;22.37;67.44;100813.55;1637436;85;99210;-65
2022/07/22 06:25:00;;;;;;;26.27;11.75;;;;;;;22.37;67.44;100813.55;1645988;85;25828;-66
2022/07/22 06:27:26;;;;;;;16.35;12.07;;;;;;;22.54;67.42;100832.88;1650372;85;99320;-65
2022/07/22 06:29:51;;;;;;;20.65;11.57;;;;;;;22.58;67.36;100830.73;1646942;85;25933;-65
2022/07/22 06:32:17;;;;;;;20.50;12.63;;;;;;;22.65;67.28;100833.27;1645170;85;27400;-66
2022/07/22 06:34:43;;;;;;;15.35;10.68;;;;;;;22.73;67.21;100829.83;1638509;85;99162;-65
2022/07/22 06:37:09;;;;;;;16.25;9.68;;;;;;;22.79;67.14;100830.17;1641634;85;25827;-65
2022/07/22 06:39:35;;;;;;;13.65;9.68;;;;;;;22.85;67.02;100831.48;1645439;84;99636;-65
2022/07/22 06:42:01;;;;;;;14.38;9.48;;;;;;;22.90;66.82;100827.31;1640748;84;25759;-65
2022/07/22 06:44:27;;;;;;;15.95;10.38;;;;;;;22.95;66.71;100830.48;1644065;85;27448;-66
2022/07/22 06:46:54;;;;;;;16.20;11.60;;;;;;;23.03;66.57;100835.25;1644013;85;99056;-65
2022/07/22 06:49:20;;;;;;;17.70;11.18;;;;;;;23.06;66.44;100828.12;1644759;85;25849;-65
2022/07/22 06:51:46;;;;;;;23.83;11.40;;;;;;;23.10;66.31;100825.97;1642363;85;99015;-65
2022/07/22 06:54:12;;;;;;;43.13;13.28;;;;;;;23.13;66.23;100822.45;1686039;83;26735;-66
2022/07/22 06:56:38;;;;;;;19.00;11.93;;;;;;;23.19;66.24;100826.48;1686248;83;27409;-66
2022/07/22 06:59:03;;;;;;;20.30;11.73;;;;;;;23.21;66.16;100819.00;1680241;82;99083;-66
2022/07/22 07:01:29;;;;;;;16.40;12.33;;;;;;;23.22;66.10;100823.46;1688893;83;25556;-59
2022/07/22 07:03:55;;;;;;;23.65;12.53;;;;;;;23.27;65.98;100826.63;1683642;83;99053;-58
2022/07/22 07:06:21;;;;;;;19.20;13.08;;;;;;;23.31;65.91;100830.81;1684460;82;25681;-58
2022/07/22 07:08:47;;;;;;;21.57;12.20;;;;;;;23.29;65.86;100821.88;1685272;83;27354;-59
2022/07/22 07:11:12;;;;;;;25.00;11.30;;;;;;;23.34;65.92;100838.73;1686112;83;99218;-59
2022/07/22 07:13:39;;;;;;;25.65;12.35;;;;;;;23.39;65.87;100825.48;1685593;83;26008;-59
2022/07/22 07:16:06;;;;;;;16.50;10.93;;;;;;;23.43;65.68;100840.56;1646892;84;99076;-60
2022/07/22 07:18:31;;;;;;;37.55;13.25;;;;;;;23.48;65.63;100829.19;1650078;84;25788;-59
2022/07/22 07:20:57;;;;;;;15.30;10.53;;;;;;;23.50;65.51;100836.23;1662167;84;99326;-59
2022/07/22 07:23:23;;;;;;;19.20;10.80;;;;;;;23.56;65.46;100837.56;1693416;82;26493;-59
2022/07/22 07:25:50;;;;;;;17.87;11.90;;;;;;;23.63;65.43;100842.31;1695969;81;26401;-59
2022/07/22 07:28:16;;;;;;;16.77;12.07;;;;;;;23.70;65.29;100842.59;1695488;81;99080;-59
2022/07/22 07:30:42;;;;;;;17.95;11.05;;;;;;;23.78;65.12;100845.45;1694330;82;26150;-59
2022/07/22 07:33:08;;;;;;;15.72;11.12;;;;;;;23.80;65.12;100851.65;1697956;82;99156;-73
2022/07/22 07:35:34;;;;;;;16.50;11.30;;;;;;;23.77;64.87;100842.87;1696743;82;26481;-65
2022/07/22 07:37:59;;;;;;;12.73;10.70;;;;;;;23.81;64.85;100839.69;1689885;82;25794;-65
2022/07/22 07:40:25;;;;;;;14.65;11.15;;;;;;;23.87;64.70;100845.08;1692298;82;99085;-65
2022/07/22 07:42:53;;;;;;;17.17;10.85;;;;;;;23.98;64.60;100843.55;1698992;82;25858;-65
2022/07/22 07:45:18;;;;;;;17.62;11.08;;;;;;;24.00;64.27;100842.89;1690316;82;99315;-66
2022/07/22 07:47:45;;;;;;;13.43;10.75;;;;;;;24.04;64.13;100847.56;1692946;82;26661;-65
2022/07/22 07:50:13;;;;;;;19.35;10.85;;;;;;;24.06;63.96;100850.52;1659558;84;25540;-67
2022/07/22 07:52:41;;;;;;;16.05;10.28;;;;;;;24.16;63.81;100850.48;1640306;85;99171;-67
2022/07/22 07:55:09;;;;;;;16.70;11.75;;;;;;;24.19;63.57;100842.83;1657170;84;26265;-67
2022/07/22 07:57:36;;;;;;;13.45;11.08;;;;;;;24.24;63.38;100845.12;1696346;82;99206;-67
2022/07/22 08:00:07;;;;;;;21.95;11.78;;;;;;;24.26;63.23;100844.50;1692779;82;26887;-67
2022/07/22 08:02:33;;;;;;;18.98;11.33;;;;;;;24.28;63.09;100839.23;1658147;84;25815;-67
2022/07/22 08:04:59;;;;;;;13.60;12.03;;;;;;;24.32;62.95;100837.56;1663475;84;99066;-68
2022/07/22 08:07:26;;;;;;;22.90;11.57;;;;;;;24.35;62.87;100835.38;1639818;85;26508;-68
2022/07/22 08:09:52;;;;;;;15.58;10.95;;;;;;;24.42;62.85;100839.25;1638916;85;98367;-66
2022/07/22 08:12:18;;;;;;;19.50;11.43;;;;;;;24.53;62.69;100844.53;1692823;82;25784;-67
2022/07/22 08:14:45;;;;;;;14.58;11.65;;;;;;;24.65;62.48;100849.30;1698486;82;26571;-67
2022/07/22 08:17:11;;;;;;;16.75;11.70;;;;;;;24.70;62.07;100846.11;1695588;82;98745;-66
2022/07/22 08:19:37;;;;;;;17.73;12.07;;;;;;;24.69;61.80;100850.73;1684277;82;26378;-68
2022/07/22 08:22:03;;;;;;;17.27;12.93;;;;;;;24.73;61.65;100837.58;1650063;83;98996;-67
2022/07/22 08:24:29;;;;;;;18.75;13.28;;;;;;;24.78;61.54;100844.33;1682749;83;25891;-69
2022/07/22 08:26:54;;;;;;;17.98;12.93;;;;;;;24.82;61.49;100837.52;1688857;81;26331;-66
2022/07/22 08:29:22;;;;;;;19.23;12.58;;;;;;;24.89;61.40;100841.38;1682767;82;99268;-68
2022/07/22 08:31:48;;;;;;;15.18;11.73;;;;;;;24.94;61.28;100842.28;1655502;83;25737;-67
2022/07/22 08:34:14;;;;;;;16.27;11.05;;;;;;;25.00;61.17;100844.95;1648889;84;99576;-69
2022/07/22 08:36:40;;;;;;;13.18;11.40;;;;;;;25.05;60.99;100845.34;1626409;86;25863;-68
2022/07/22 08:39:06;;;;;;;17.07;11.80;;;;;;;25.14;60.86;100843.05;1681946;83;99301;-67
2022/07/22 08:41:39;;;;;;;16.93;11.88;;;;;;;25.26;60.71;100847.28;1682307;83;26159;-67
2022/07/22 08:44:08;;;;;;;22.95;12.13;;;;;;;25.37;60.46;100845.68;1659153;84;25747;-68
2022/07/22 08:46:35;;;;;;;15.83;11.25;;;;;;;25.44;60.28;100845.91;1679388;82;98992;-69
2022/07/22 08:49:02;;;;;;;14.68;10.98;;;;;;;25.54;60.19;100848.06;1686533;83;25772;-67
2022/07/22 08:51:29;;;;;;;13.58;11.12;;;;;;;25.65;59.61;100853.34;1649916;84;99240;-71
2022/07/22 08:53:56;;;;;;;18.17;9.65;;;;;;;25.67;59.07;100843.57;1689198;83;25920;-69
2022/07/22 08:56:23;;;;;;;13.58;11.22;;;;;;;25.72;58.26;100841.21;1683586;83;25766;-70
2022/07/22 08:58:49;;;;;;;18.23;10.30;;;;;;;25.76;58.20;100846.22;1681779;83;99132;-68
2022/07/22 09:01:17;;;;;;;16.32;10.58;;;;;;;25.88;58.33;100840.83;1683993;83;25847;-67
2022/07/22 09:03:49;;;;;;;18.37;11.22;;;;;;;26.06;57.83;100854.98;1681686;82;99197;-71
2022/07/22 09:06:17;;;;;;;15.43;10.70;;;;;;;26.17;57.60;100848.71;1658124;84;25755;-68
2022/07/22 09:08:55;;;;;;;16.07;10.08;;;;;;;26.26;57.02;100848.25;1683704;82;25941;-66
2022/07/22 09:11:24;;;;;;;13.32;10.65;;;;;;;26.30;57.09;100847.41;1685977;81;98866;-66
2022/07/22 09:13:51;;;;;;;22.60;10.63;;;;;;;26.40;56.82;100839.94;1687634;83;25880;-66
2022/07/22 09:16:41;;;;;;;31.02;12.50;;;;;;;26.49;55.91;100845.83;1653945;84;99009;-66
2022/07/22 09:19:07;;;;;;;20.00;11.50;;;;;;;26.48;55.65;100843.59;1674251;82;26592;-67
2022/07/22 09:21:37;;;;;;;12.00;10.48;;;;;;;26.42;55.66;100844.25;1681484;82;99335;-68
2022/07/22 09:24:05;;;;;;;16.35;11.08;;;;;;;26.47;55.74;100837.75;1687844;83;28188;-66
2022/07/22 09:26:37;;;;;;;15.65;10.75;;;;;;;26.62;55.66;100839.36;1681301;83;26063;-65
2022/07/22 09:29:06;;;;;;;22.52;11.95;;;;;;;26.59;54.91;100841.06;1683448;82;98993;-66
2022/07/22 09:31:36;;;;;;;30.55;12.45;;;;;;;26.40;54.79;100834.44;1683961;83;25839;-65
2022/07/22 09:34:04;;;;;;;13.80;11.97;;;;;;;26.33;55.07;100839.73;1682451;83;98970;-65
2022/07/22 09:36:32;;;;;;;14.50;11.43;;;;;;;26.29;55.06;100841.05;1684698;83;28098;-65
2022/07/22 09:38:59;;;;;;;23.73;10.70;;;;;;;26.25;55.17;100841.03;1658036;83;25850;-66
2022/07/22 09:41:25;;;;;;;15.35;10.98;;;;;;;26.29;55.27;100842.94;1671976;84;98998;-66
2022/07/22 09:43:51;;;;;;;14.65;11.18;;;;;;;26.38;55.28;100839.25;1673008;85;27929;-67
2022/07/22 09:46:21;;;;;;;17.30;10.00;;;;;;;26.53;55.07;100836.23;1671859;84;99021;-67
2022/07/22 09:48:47;;;;;;;14.75;10.03;;;;;;;26.61;54.88;100834.02;1671621;85;27327;-68
2022/07/22 09:51:13;;;;;;;14.38;9.28;;;;;;;26.73;54.91;100836.31;1671950;84;99242;-68
2022/07/22 09:53:41;;;;;;;28.00;9.88;;;;;;;26.90;54.58;100839.97;1673380;85;25705;-68
2022/07/22 09:56:08;;;;;;;11.90;10.70;;;;;;;27.05;54.18;100836.95;1672973;84;25920;-68
2022/07/22 09:58:34;;;;;;;11.75;10.45;;;;;;;27.08;53.66;100832.49;1671790;84;98964;-69
2022/07/22 10:01:08;;;;;;;11.97;9.08;;;;;;;27.17;53.73;100834.74;1673756;85;27404;-68
2022/07/22 10:03:36;;;;;;;10.95;8.98;;;;;;;27.19;52.92;100829.94;1672668;84;98930;-68
2022/07/22 10:06:05;;;;;;;8.53;7.62;;;;;;;27.14;52.84;100835.08;1673617;85;25959;-68
2022/07/22 10:08:37;;;;;;;12.58;7.70;;;;;;;27.15;52.23;100835.42;1673601;85;26071;-67
2022/07/22 10:11:07;;;;;;;12.03;7.83;;;;;;;27.08;51.75;100842.12;1672403;84;98744;-69
2022/07/22 10:13:34;;;;;;;13.53;8.00;;;;;;;26.97;51.17;100833.33;1675471;85;27376;-68
2022/07/22 10:16:04;;;;;;;30.65;10.72;;;;;;;27.02;51.09;100833.16;1672589;84;98804;-68
2022/07/22 10:18:30;;;;;;;20.20;8.73;;;;;;;27.21;51.05;100825.12;1673308;85;25752;-68
2022/07/22 10:21:09;;;;;;;20.88;8.75;;;;;;;27.37;50.58;100829.27;1678283;83;26347;-63
2022/07/22 10:23:36;;;;;;;8.58;7.67;;;;;;;27.33;50.20;100836.14;1681144;82;99419;-62
2022/07/22 10:26:04;;;;;;;18.35;8.75;;;;;;;27.36;50.06;100830.81;1682220;83;28086;-63
2022/07/22 10:28:36;;;;;;;10.78;7.45;;;;;;;27.34;49.78;100825.99;1682553;83;98085;-63
2022/07/22 10:31:19;;;;;;;12.37;7.78;;;;;;;27.43;49.76;100824.97;1680767;83;25950;-62
2022/07/22 10:33:55;;;;;;;11.25;6.90;;;;;;;27.53;49.43;100823.42;1678747;83;99009;-62
2022/07/22 10:36:34;;;;;;;10.55;7.35;;;;;;;27.50;48.71;100821.88;1652103;85;25977;-63
2022/07/22 10:39:13;;;;;;;15.93;7.45;;;;;;;27.53;48.40;100830.31;1650931;85;27458;-63
2022/07/22 10:41:43;;;;;;;11.70;8.00;;;;;;;27.54;48.43;100821.02;1649756;84;98687;-63
2022/07/22 10:44:10;;;;;;;14.23;8.15;;;;;;;27.65;48.57;100817.95;1675914;83;26508;-63
2022/07/22 10:46:53;;;;;;;9.98;7.15;;;;;;;27.90;48.44;100831.19;1677668;83;98895;-63
2022/07/22 10:49:23;;;;;;;19.07;7.80;;;;;;;27.97;47.99;100828.08;1649130;85;25833;-63
2022/07/22 10:52:16;;;;;;;9.23;6.22;;;;;;;27.92;47.55;100827.22;1682058;83;99001;-66
2022/07/22 10:55:17;;;;;;;9.10;6.67;;;;;;;27.82;47.52;100824.31;1677025;83;25769;-64
2022/07/22 10:57:44;;;;;;;18.92;7.00;;;;;;;27.82;47.28;100814.66;1679002;83;98899;-65
2022/07/22 11:00:13;;;;;;;11.03;6.17;;;;;;;27.89;47.23;100820.68;1683991;83;27885;-63
2022/07/22 11:02:40;;;;;;;12.80;6.05;;;;;;;28.11;46.99;100810.30;1648749;84;25301;-64
2022/07/22 11:05:08;;;;;;;11.12;6.20;;;;;;;28.17;46.43;100822.52;1676211;83;98747;-62
2022/07/22 11:07:46;;;;;;;17.92;6.92;;;;;;;28.02;46.07;100818.77;1644259;84;25992;-63
2022/07/22 11:10:20;;;;;;;16.35;6.10;;;;;;;27.94;46.08;100821.02;1675717;83;98857;-64
2022/07/22 11:12:48;;;;;;;9.45;5.97;;;;;;;28.08;46.26;100830.47;1679087;83;27829;-64
2022/07/22 11:15:15;;;;;;;7.80;5.70;;;;;;;28.15;46.08;100811.33;1681315;83;25775;-64